Time;durP1;ratioP1;P1;durP2;ratioP2;P2;SDS_P1;SDS_P2;PMS_P1;PMS_P2;Temp;Humidity;BMP_temperature;BMP_pressure;BME280_temperature;BME280_humidity;BME280_pressure;Samples;Min_cycle;Max_cycle;Signal;HPM_P1;HPM_P2
2022/02/16 00:02:07;;;;;;;110.32;51.95;;;;;;;;;;5084282;28;20238;-93
2022/02/16 00:04:33;;;;;;;110.80;53.65;;;;;;;;;;5084454;28;20191;-93
2022/02/16 00:07:00;;;;;;;111.80;53.70;;;;;;;;;;5083735;28;20199;-92
2022/02/16 00:09:28;;;;;;;116.35;56.20;;;;;;;;;;5083436;28;20195;-93
2022/02/16 00:11:54;;;;;;;110.32;53.92;;;;;;;;;;5084316;28;20340;-93
2022/02/16 00:14:20;;;;;;;118.80;54.22;;;;;;;;;;5084583;28;20222;-93
2022/02/16 00:16:47;;;;;;;115.50;53.75;;;;;;;;;;5084508;28;20238;-94
2022/02/16 00:19:14;;;;;;;111.40;53.03;;;;;;;;;;5084089;28;20248;-93
2022/02/16 00:21:40;;;;;;;108.38;50.10;;;;;;;;;;5084225;28;20231;-92
2022/02/16 00:24:08;;;;;;;109.55;50.90;;;;;;;;;;5083848;28;20227;-93
2022/02/16 00:26:36;;;;;;;108.93;52.00;;;;;;;;;;5084077;28;20199;-93
2022/02/16 00:29:02;;;;;;;109.90;52.50;;;;;;;;;;5084057;28;20208;-92
2022/02/16 00:31:29;;;;;;;116.35;55.05;;;;;;;;;;5084324;28;20203;-93
2022/02/16 00:33:55;;;;;;;109.90;52.70;;;;;;;;;;5083630;28;20316;-93
2022/02/16 00:36:21;;;;;;;108.72;52.65;;;;;;;;;;5083483;28;20235;-93
2022/02/16 00:38:48;;;;;;;107.05;53.13;;;;;;;;;;5083295;28;20231;-92
2022/02/16 00:41:14;;;;;;;105.97;53.72;;;;;;;;;;5083154;28;20223;-94
2022/02/16 00:43:42;;;;;;;111.03;54.03;;;;;;;;;;5082743;28;20199;-93
2022/02/16 00:46:09;;;;;;;116.85;57.47;;;;;;;;;;5082937;28;20203;-93
2022/02/16 00:48:35;;;;;;;110.90;53.08;;;;;;;;;;5083636;28;20207;-94
2022/02/16 00:51:02;;;;;;;105.53;52.80;;;;;;;;;;5082784;28;20203;-93
2022/02/16 00:53:28;;;;;;;105.65;52.25;;;;;;;;;;5083188;28;20195;-92
2022/02/16 00:55:55;;;;;;;106.30;52.50;;;;;;;;;;5083009;28;20199;-94
2022/02/16 00:58:21;;;;;;;115.97;53.92;;;;;;;;;;5083047;28;20221;-94
2022/02/16 01:00:49;;;;;;;106.07;51.13;;;;;;;;;;5083010;28;20926;-93
2022/02/16 01:03:15;;;;;;;115.32;53.28;;;;;;;;;;5082919;28;20230;-93
2022/02/16 01:05:42;;;;;;;104.90;50.95;;;;;;;;;;5083151;28;20195;-93
2022/02/16 01:08:09;;;;;;;106.60;51.08;;;;;;;;;;5083266;28;20199;-92
2022/02/16 01:10:35;;;;;;;101.57;49.38;;;;;;;;;;5082069;28;20230;-94
2022/02/16 01:13:02;;;;;;;104.72;51.72;;;;;;;;;;5082562;28;20206;-93
2022/02/16 01:15:28;;;;;;;101.85;50.67;;;;;;;;;;5082558;28;20217;-92
2022/02/16 01:17:56;;;;;;;106.13;52.72;;;;;;;;;;5082362;28;20221;-94
2022/02/16 01:20:23;;;;;;;107.82;51.97;;;;;;;;;;5082502;28;20199;-93
2022/02/16 01:22:49;;;;;;;105.22;51.22;;;;;;;;;;5083048;28;20238;-94
2022/02/16 01:25:16;;;;;;;104.82;51.25;;;;;;;;;;5082855;28;20195;-94
2022/02/16 01:27:42;;;;;;;107.32;52.78;;;;;;;;;;5081501;28;20204;-95
2022/02/16 01:30:09;;;;;;;110.25;52.80;;;;;;;;;;5080963;28;20599;-94
2022/02/16 01:32:36;;;;;;;105.75;53.63;;;;;;;;;;5082467;28;20203;-94
2022/02/16 01:35:04;;;;;;;109.07;52.00;;;;;;;;;;5081765;28;20195;-93
2022/02/16 01:37:31;;;;;;;108.90;54.42;;;;;;;;;;5081179;28;20882;-94
2022/02/16 01:39:57;;;;;;;109.53;54.35;;;;;;;;;;5080747;28;20248;-94
2022/02/16 01:42:24;;;;;;;109.07;54.50;;;;;;;;;;5082742;28;20293;-93
2022/02/16 01:44:51;;;;;;;112.22;52.58;;;;;;;;;;5082727;28;20199;-94
2022/02/16 01:47:17;;;;;;;107.13;51.95;;;;;;;;;;5082862;28;20203;-94
2022/02/16 01:49:44;;;;;;;108.43;51.83;;;;;;;;;;5082202;28;20213;-93
2022/02/16 01:52:12;;;;;;;115.72;54.92;;;;;;;;;;5082350;28;20343;-93
2022/02/16 01:54:39;;;;;;;110.38;54.50;;;;;;;;;;5082542;28;20241;-92
2022/02/16 01:57:06;;;;;;;114.72;54.33;;;;;;;;;;5082370;28;20195;-93
2022/02/16 01:59:33;;;;;;;115.75;54.10;;;;;;;;;;5082206;28;20203;-94
2022/02/16 02:01:59;;;;;;;120.20;55.15;;;;;;;;;;5081384;28;20304;-93
2022/02/16 02:04:26;;;;;;;109.40;54.83;;;;;;;;;;5081051;28;20230;-93
2022/02/16 02:06:52;;;;;;;112.90;53.47;;;;;;;;;;5082271;28;20736;-93
2022/02/16 02:09:21;;;;;;;109.43;53.65;;;;;;;;;;5082139;28;20207;-94
2022/02/16 02:11:47;;;;;;;114.60;56.03;;;;;;;;;;5081940;28;20203;-93
2022/02/16 02:14:14;;;;;;;116.22;54.95;;;;;;;;;;5081880;28;20199;-93
2022/02/16 02:16:41;;;;;;;115.45;56.65;;;;;;;;;;5081403;28;20203;-94
2022/02/16 02:19:08;;;;;;;112.32;54.38;;;;;;;;;;5081625;28;20199;-93
2022/02/16 02:21:36;;;;;;;110.45;53.67;;;;;;;;;;5081418;28;20230;-94
2022/02/16 02:24:03;;;;;;;109.05;52.83;;;;;;;;;;5081980;28;20687;-93
2022/02/16 02:26:29;;;;;;;116.05;56.28;;;;;;;;;;5081573;28;20276;-94
2022/02/16 02:28:55;;;;;;;114.93;54.13;;;;;;;;;;5082255;28;20203;-93
2022/02/16 02:31:29;;;;;;;113.30;55.00;;;;;;;;;;5081140;28;20191;-93
2022/02/16 02:33:56;;;;;;;116.88;55.63;;;;;;;;;;5079634;28;20203;-93
2022/02/16 02:36:22;;;;;;;107.90;53.33;;;;;;;;;;5080176;28;20215;-94
2022/02/16 02:38:50;;;;;;;109.60;54.65;;;;;;;;;;5068257;28;20232;-93
2022/02/16 02:41:16;;;;;;;109.53;53.13;;;;;;;;;;5061619;28;20196;-94
2022/02/16 02:43:43;;;;;;;108.20;52.75;;;;;;;;;;5061493;28;20859;-93
2022/02/16 02:46:10;;;;;;;104.38;51.47;;;;;;;;;;5061401;28;20227;-93
2022/02/16 02:48:36;;;;;;;109.10;52.53;;;;;;;;;;5061765;28;20200;-94
2022/02/16 02:51:03;;;;;;;112.97;55.30;;;;;;;;;;5054853;28;20195;-93
2022/02/16 02:53:29;;;;;;;110.57;52.72;;;;;;;;;;5056696;28;20239;-93
2022/02/16 02:55:57;;;;;;;108.22;54.17;;;;;;;;;;5057644;28;20199;-93
2022/02/16 02:58:24;;;;;;;108.45;53.75;;;;;;;;;;5054128;28;21009;-94
2022/02/16 03:00:50;;;;;;;111.65;55.67;;;;;;;;;;5053998;28;20226;-92
2022/02/16 03:03:17;;;;;;;104.57;52.85;;;;;;;;;;5054434;28;20240;-93
2022/02/16 03:05:44;;;;;;;110.47;53.58;;;;;;;;;;5054463;28;20196;-93
2022/02/16 03:08:10;;;;;;;104.57;53.33;;;;;;;;;;5053103;28;20904;-92
2022/02/16 03:10:36;;;;;;;102.70;51.60;;;;;;;;;;5054645;28;20196;-93
2022/02/16 03:13:18;;;;;;;106.55;52.75;;;;;;;;;;5061266;28;20204;-92
2022/02/16 03:15:45;;;;;;;113.03;55.03;;;;;;;;;;5065312;28;20695;-94
2022/02/16 03:18:11;;;;;;;114.30;57.17;;;;;;;;;;5061925;28;20207;-94
2022/02/16 03:20:38;;;;;;;106.95;52.70;;;;;;;;;;5064852;28;20199;-93
2022/02/16 03:23:05;;;;;;;110.22;52.72;;;;;;;;;;5062678;28;20232;-93
2022/02/16 03:25:31;;;;;;;115.25;54.60;;;;;;;;;;5063230;28;20268;-93
2022/02/16 03:27:58;;;;;;;114.30;55.55;;;;;;;;;;5064538;28;20257;-93
2022/02/16 03:30:26;;;;;;;104.30;52.58;;;;;;;;;;5064573;28;20196;-93
2022/02/16 03:32:52;;;;;;;107.60;52.58;;;;;;;;;;5064900;28;20230;-94
2022/02/16 03:35:19;;;;;;;107.25;53.60;;;;;;;;;;5064882;28;20192;-93
2022/02/16 03:37:45;;;;;;;105.68;53.40;;;;;;;;;;5065168;28;20254;-95
2022/02/16 03:40:12;;;;;;;104.97;52.20;;;;;;;;;;5065200;28;20212;-94
2022/02/16 03:42:38;;;;;;;108.95;52.80;;;;;;;;;;5064705;28;20224;-92
2022/02/16 03:45:05;;;;;;;111.43;54.25;;;;;;;;;;5064254;28;20204;-93
2022/02/16 03:47:33;;;;;;;107.28;54.40;;;;;;;;;;5064120;28;20287;-93
2022/02/16 03:50:00;;;;;;;104.43;52.70;;;;;;;;;;5064459;28;20233;-93
2022/02/16 03:52:26;;;;;;;108.75;53.65;;;;;;;;;;5063130;28;20230;-93
2022/02/16 03:54:53;;;;;;;110.75;53.80;;;;;;;;;;5063225;28;20197;-93
2022/02/16 03:57:20;;;;;;;107.47;52.40;;;;;;;;;;5063719;28;20254;-93
2022/02/16 03:59:46;;;;;;;109.45;54.83;;;;;;;;;;5064243;28;20227;-93
2022/02/16 04:02:13;;;;;;;110.22;54.38;;;;;;;;;;5063887;28;20774;-93
2022/02/16 04:04:41;;;;;;;117.57;53.78;;;;;;;;;;5063741;28;20200;-93
2022/02/16 04:07:08;;;;;;;106.28;52.78;;;;;;;;;;5064222;28;20250;-94
2022/02/16 04:09:34;;;;;;;112.68;54.80;;;;;;;;;;5064624;28;20257;-93
2022/02/16 04:12:01;;;;;;;107.68;52.95;;;;;;;;;;5064471;28;20272;-93
2022/02/16 04:14:27;;;;;;;111.78;54.40;;;;;;;;;;5064286;28;20204;-93
2022/02/16 04:16:54;;;;;;;109.70;54.05;;;;;;;;;;5063448;28;20200;-93
2022/02/16 04:19:20;;;;;;;109.40;53.42;;;;;;;;;;5063089;28;20204;-93
2022/02/16 04:21:48;;;;;;;125.10;55.45;;;;;;;;;;5062982;28;20195;-93
2022/02/16 04:24:15;;;;;;;113.07;57.00;;;;;;;;;;5063392;28;20200;-93
2022/02/16 04:26:41;;;;;;;111.93;55.15;;;;;;;;;;5074069;28;20203;-93
2022/02/16 04:29:08;;;;;;;109.55;54.17;;;;;;;;;;5083908;28;20203;-92
2022/02/16 04:31:34;;;;;;;115.13;55.72;;;;;;;;;;5073036;28;20200;-93
2022/02/16 04:34:01;;;;;;;114.93;54.92;;;;;;;;;;5063620;28;20606;-93
2022/02/16 04:36:27;;;;;;;112.15;57.65;;;;;;;;;;5063082;28;20203;-92
2022/02/16 04:38:55;;;;;;;112.50;55.53;;;;;;;;;;5062784;28;20305;-92
2022/02/16 04:41:22;;;;;;;111.45;55.50;;;;;;;;;;5062623;28;20200;-93
2022/02/16 04:43:48;;;;;;;107.07;52.50;;;;;;;;;;5062930;28;20227;-94
2022/02/16 04:46:15;;;;;;;112.85;57.63;;;;;;;;;;5062767;28;20442;-93
2022/02/16 04:48:41;;;;;;;116.65;56.45;;;;;;;;;;5062853;28;20242;-93
2022/02/16 04:51:08;;;;;;;109.13;54.88;;;;;;;;;;5063284;28;20200;-93
2022/02/16 04:53:35;;;;;;;117.00;57.53;;;;;;;;;;5062984;28;20679;-93
2022/02/16 04:56:03;;;;;;;112.80;54.85;;;;;;;;;;5062818;28;20200;-93
2022/02/16 04:58:30;;;;;;;112.13;54.17;;;;;;;;;;5061489;28;20281;-93
2022/02/16 05:00:56;;;;;;;107.22;53.00;;;;;;;;;;5061937;28;20200;-92
2022/02/16 05:03:23;;;;;;;113.70;55.17;;;;;;;;;;5063110;28;20261;-93
2022/02/16 05:05:49;;;;;;;109.97;54.42;;;;;;;;;;5064059;28;20632;-93
2022/02/16 05:08:16;;;;;;;110.72;55.25;;;;;;;;;;5062456;28;20254;-93
2022/02/16 05:10:42;;;;;;;110.80;54.97;;;;;;;;;;5062693;28;20204;-93
2022/02/16 05:13:10;;;;;;;120.88;54.50;;;;;;;;;;5062927;28;20262;-93
2022/02/16 05:15:37;;;;;;;115.80;54.85;;;;;;;;;;5062856;28;20967;-94
2022/02/16 05:18:03;;;;;;;116.38;55.55;;;;;;;;;;5062298;28;20917;-94
2022/02/16 05:20:30;;;;;;;115.63;55.00;;;;;;;;;;5062860;28;20204;-93
2022/02/16 05:22:56;;;;;;;118.60;56.60;;;;;;;;;;5081711;28;20223;-93
2022/02/16 05:25:23;;;;;;;114.70;55.72;;;;;;;;;;5082862;28;20199;-93
2022/02/16 05:27:49;;;;;;;114.55;56.83;;;;;;;;;;5082724;28;20203;-93
2022/02/16 05:30:17;;;;;;;112.75;55.03;;;;;;;;;;5082576;28;20203;-93
2022/02/16 05:32:43;;;;;;;116.45;57.47;;;;;;;;;;5082832;28;20204;-93
2022/02/16 05:35:10;;;;;;;116.65;56.65;;;;;;;;;;5082582;28;20191;-93
2022/02/16 05:37:37;;;;;;;120.72;57.15;;;;;;;;;;5080048;28;20191;-94
2022/02/16 05:40:04;;;;;;;118.50;57.65;;;;;;;;;;5080518;28;20222;-93
2022/02/16 05:42:30;;;;;;;119.63;57.70;;;;;;;;;;5082107;28;20215;-93
2022/02/16 05:44:57;;;;;;;116.13;53.97;;;;;;;;;;5082996;28;20603;-93
2022/02/16 05:47:25;;;;;;;121.55;58.17;;;;;;;;;;5081924;28;20207;-92
2022/02/16 05:49:51;;;;;;;127.22;58.40;;;;;;;;;;5081973;28;20697;-93
2022/02/16 05:52:18;;;;;;;140.93;66.00;;;;;;;;;;5081147;28;20245;-93
2022/02/16 05:54:44;;;;;;;140.82;66.72;;;;;;;;;;5081992;28;20199;-92
2022/02/16 05:57:11;;;;;;;137.00;67.75;;;;;;;;;;5081656;28;20221;-93
2022/02/16 05:59:39;;;;;;;152.52;70.18;;;;;;;;;;5081919;28;20215;-92
2022/02/16 06:02:06;;;;;;;140.07;65.32;;;;;;;;;;5081907;28;20195;-93
2022/02/16 06:04:34;;;;;;;141.05;62.55;;;;;;;;;;5081900;28;21055;-92
2022/02/16 06:07:00;;;;;;;129.55;62.15;;;;;;;;;;5080447;28;20207;-94
2022/02/16 06:09:27;;;;;;;139.27;67.07;;;;;;;;;;5080125;28;20196;-94
2022/02/16 06:11:53;;;;;;;139.95;69.40;;;;;;;;;;5081043;28;20214;-94
2022/02/16 06:14:20;;;;;;;126.22;59.92;;;;;;;;;;5075301;28;20195;-93
2022/02/16 06:16:47;;;;;;;119.78;59.20;;;;;;;;;;5067953;28;20891;-93
2022/02/16 06:19:13;;;;;;;118.03;57.60;;;;;;;;;;5081255;28;20262;-93
2022/02/16 06:21:42;;;;;;;122.20;58.95;;;;;;;;;;5081403;28;20268;-92
2022/02/16 06:24:08;;;;;;;119.43;58.90;;;;;;;;;;5079311;28;20318;-93
2022/02/16 06:26:35;;;;;;;132.13;63.85;;;;;;;;;;5081482;28;20199;-93
2022/02/16 06:29:01;;;;;;;145.65;65.18;;;;;;;;;;5081625;28;20207;-93
2022/02/16 06:31:28;;;;;;;134.10;66.20;;;;;;;;;;5081309;28;20241;-92
2022/02/16 06:33:54;;;;;;;139.70;65.22;;;;;;;;;;5081345;28;20207;-93
2022/02/16 06:36:22;;;;;;;134.70;66.97;;;;;;;;;;5080451;28;20257;-93
2022/02/16 06:38:50;;;;;;;130.43;62.22;;;;;;;;;;5077441;28;20227;-93
2022/02/16 06:41:17;;;;;;;134.30;66.22;;;;;;;;;;5074002;28;20206;-94
2022/02/16 06:43:44;;;;;;;134.00;66.47;;;;;;;;;;5071057;28;20228;-93
2022/02/16 06:46:10;;;;;;;140.13;66.05;;;;;;;;;;5075995;28;20395;-93
2022/02/16 06:48:36;;;;;;;134.55;66.22;;;;;;;;;;5081035;28;20203;-93
2022/02/16 06:51:03;;;;;;;131.82;66.57;;;;;;;;;;5081241;28;20245;-93
2022/02/16 06:53:30;;;;;;;135.65;64.97;;;;;;;;;;5066514;28;20225;-93
2022/02/16 06:55:58;;;;;;;131.57;64.50;;;;;;;;;;5081621;28;20290;-93
2022/02/16 06:58:24;;;;;;;129.60;63.87;;;;;;;;;;5080556;28;20513;-93
2022/02/16 07:00:50;;;;;;;130.55;64.10;;;;;;;;;;5080844;28;20495;-93
2022/02/16 07:03:17;;;;;;;126.23;63.57;;;;;;;;;;5081113;28;20223;-93
2022/02/16 07:05:44;;;;;;;133.00;63.93;;;;;;;;;;5081266;28;20782;-93
2022/02/16 07:08:11;;;;;;;134.93;66.40;;;;;;;;;;5080111;28;20475;-93
2022/02/16 07:10:37;;;;;;;147.50;75.00;;;;;;;;;;5073390;28;20208;-93
2022/02/16 07:13:06;;;;;;;139.02;70.22;;;;;;;;;;5072151;28;20503;-94
2022/02/16 07:15:33;;;;;;;144.67;69.03;;;;;;;;;;5080023;28;20195;-94
2022/02/16 07:18:01;;;;;;;142.97;69.37;;;;;;;;;;5079781;28;20438;-94
2022/02/16 07:20:27;;;;;;;130.93;67.83;;;;;;;;;;5079426;28;20512;-94
2022/02/16 07:22:54;;;;;;;132.37;67.17;;;;;;;;;;5080610;28;20503;-94
2022/02/16 07:25:21;;;;;;;137.00;68.20;;;;;;;;;;5081121;28;20452;-93
2022/02/16 07:27:47;;;;;;;132.03;66.97;;;;;;;;;;5079603;28;20472;-94
2022/02/16 07:30:15;;;;;;;134.13;71.23;;;;;;;;;;5079336;28;20453;-93
2022/02/16 07:32:43;;;;;;;130.77;67.37;;;;;;;;;;5079327;28;20487;-93
2022/02/16 07:35:10;;;;;;;143.67;69.50;;;;;;;;;;5079604;28;20480;-93
2022/02/16 07:37:37;;;;;;;152.27;76.00;;;;;;;;;;5079966;28;21018;-93
2022/02/16 07:40:04;;;;;;;146.33;75.60;;;;;;;;;;5080826;28;20515;-93
2022/02/16 07:42:31;;;;;;;142.93;72.90;;;;;;;;;;5080556;28;20445;-93
2022/02/16 07:44:57;;;;;;;142.80;74.43;;;;;;;;;;5082045;28;20527;-92
2022/02/16 07:47:25;;;;;;;147.07;80.43;;;;;;;;;;5076608;28;20446;-92
2022/02/16 07:49:52;;;;;;;139.97;74.03;;;;;;;;;;5076167;28;20453;-92
2022/02/16 07:52:19;;;;;;;141.07;74.47;;;;;;;;;;5079921;28;20541;-92
2022/02/16 07:54:45;;;;;;;142.73;70.90;;;;;;;;;;5079672;28;20445;-92
2022/02/16 07:57:12;;;;;;;126.30;62.57;;;;;;;;;;5080869;28;20434;-92
2022/02/16 07:59:38;;;;;;;117.27;57.40;;;;;;;;;;5081124;28;20500;-91
2022/02/16 08:02:05;;;;;;;111.37;55.73;;;;;;;;;;5082466;28;20449;-91
2022/02/16 08:04:33;;;;;;;109.57;56.10;;;;;;;;;;5081654;28;20493;-91
2022/02/16 08:07:00;;;;;;;110.47;56.17;;;;;;;;;;5082349;28;20453;-92
2022/02/16 08:09:27;;;;;;;111.07;55.70;;;;;;;;;;5084832;28;20480;-92
2022/02/16 08:11:53;;;;;;;115.03;58.00;;;;;;;;;;5083784;28;21211;-92
2022/02/16 08:14:21;;;;;;;110.97;56.83;;;;;;;;;;5084313;28;20506;-92
2022/02/16 08:16:47;;;;;;;115.27;55.70;;;;;;;;;;5083584;28;20517;-92
2022/02/16 08:19:14;;;;;;;110.27;56.37;;;;;;;;;;5083614;28;20515;-92
2022/02/16 08:21:44;;;;;;;112.77;56.33;;;;;;;;;;5083648;28;20453;-92
2022/02/16 08:24:12;;;;;;;112.17;55.77;;;;;;;;;;5083433;28;20846;-93
2022/02/16 08:26:38;;;;;;;111.97;56.70;;;;;;;;;;5083232;28;20457;-91
2022/02/16 08:29:05;;;;;;;107.67;54.50;;;;;;;;;;5082817;28;20459;-93
2022/02/16 08:31:31;;;;;;;104.37;54.90;;;;;;;;;;5082934;28;20457;-94
2022/02/16 08:33:58;;;;;;;118.30;56.27;;;;;;;;;;5082005;28;20450;-96
2022/02/16 08:36:24;;;;;;;116.97;60.03;;;;;;;;;;5081945;28;20911;-94
2022/02/16 08:38:52;;;;;;;114.73;59.20;;;;;;;;;;5082445;28;20473;-92
2022/02/16 08:41:19;;;;;;;115.63;59.97;;;;;;;;;;5082263;28;20449;-92
2022/02/16 08:43:46;;;;;;;114.03;59.30;;;;;;;;;;5083298;28;20477;-92
2022/02/16 08:46:13;;;;;;;112.47;58.00;;;;;;;;;;5083881;28;20457;-93
2022/02/16 08:48:39;;;;;;;111.03;58.47;;;;;;;;;;5083751;28;20540;-93
2022/02/16 08:51:06;;;;;;;111.50;56.10;;;;;;;;;;5084293;28;20445;-93
2022/02/16 08:53:32;;;;;;;113.53;59.40;;;;;;;;;;5083685;28;20461;-93
2022/02/16 08:56:00;;;;;;;110.70;56.40;;;;;;;;;;5084008;28;20476;-94
2022/02/16 08:58:27;;;;;;;107.67;52.97;;;;;;;;;;5083250;28;20483;-96
2022/02/16 09:00:53;;;;;;;103.70;53.17;;;;;;;;;;5084112;28;20454;-95
2022/02/16 09:03:20;;;;;;;107.73;54.43;;;;;;;;;;5084480;28;20453;-90
2022/02/16 09:05:47;;;;;;;112.50;56.70;;;;;;;;;;5083406;28;20449;-92
2022/02/16 09:08:13;;;;;;;108.90;53.90;;;;;;;;;;5083847;28;20457;-90
2022/02/16 09:10:40;;;;;;;111.33;53.70;;;;;;;;;;5075152;28;20497;-94
2022/02/16 09:13:08;;;;;;;104.03;54.20;;;;;;;;;;5076311;28;20539;-92
2022/02/16 09:15:34;;;;;;;105.50;54.77;;;;;;;;;;5083932;28;20446;-92
2022/02/16 09:18:01;;;;;;;109.70;53.83;;;;;;;;;;5082110;28;20453;-91
2022/02/16 09:20:29;;;;;;;102.67;53.60;;;;;;;;;;5082488;28;20921;-93
2022/02/16 09:22:56;;;;;;;102.00;53.93;;;;;;;;;;5083673;28;20505;-94
2022/02/16 09:25:22;;;;;;;103.30;52.00;;;;;;;;;;5083465;28;20491;-94
2022/02/16 09:27:49;;;;;;;107.10;53.43;;;;;;;;;;5083926;28;20468;-93
2022/02/16 09:30:16;;;;;;;107.07;53.83;;;;;;;;;;5083996;28;20453;-95
2022/02/16 09:32:43;;;;;;;101.87;53.03;;;;;;;;;;5082798;28;21020;-90
2022/02/16 09:35:10;;;;;;;104.97;53.00;;;;;;;;;;5071727;28;20450;-94
2022/02/16 09:37:37;;;;;;;103.33;52.93;;;;;;;;;;5072118;28;20461;-93
2022/02/16 09:40:04;;;;;;;106.20;54.13;;;;;;;;;;5079390;28;20468;-94
2022/02/16 09:42:32;;;;;;;101.70;54.40;;;;;;;;;;5077062;28;20446;-91
2022/02/16 09:45:01;;;;;;;107.93;54.67;;;;;;;;;;5072894;28;20485;-91
2022/02/16 09:47:30;;;;;;;107.10;54.37;;;;;;;;;;5070969;28;20442;-92
2022/02/16 09:49:56;;;;;;;105.97;54.77;;;;;;;;;;5072598;28;20929;-91
2022/02/16 09:52:23;;;;;;;103.00;54.10;;;;;;;;;;5070315;28;20453;-91
2022/02/16 09:54:50;;;;;;;108.40;54.83;;;;;;;;;;5070898;28;20446;-90
2022/02/16 09:57:17;;;;;;;103.47;53.93;;;;;;;;;;5070048;28;20430;-90
2022/02/16 09:59:43;;;;;;;109.57;55.90;;;;;;;;;;5076422;28;20441;-92
2022/02/16 10:02:12;;;;;;;110.90;53.70;;;;;;;;;;5075350;28;20667;-93
2022/02/16 10:04:42;;;;;;;103.50;54.37;;;;;;;;;;5076760;28;20493;-89
2022/02/16 10:07:21;;;;;;;106.17;54.50;;;;;;;;;;5071307;28;20461;-91
2022/02/16 10:09:48;;;;;;;107.27;54.20;;;;;;;;;;5069786;28;20450;-91
2022/02/16 10:12:15;;;;;;;105.57;55.00;;;;;;;;;;5072453;28;20464;-93
2022/02/16 10:14:43;;;;;;;103.07;54.87;;;;;;;;;;5071872;28;20477;-95
2022/02/16 10:17:21;;;;;;;108.53;55.73;;;;;;;;;;5084008;28;20965;-92
2022/02/16 10:19:57;;;;;;;108.17;55.20;;;;;;;;;;5066511;28;20481;-93
2022/02/16 10:22:24;;;;;;;103.03;53.60;;;;;;;;;;5064616;28;20547;-95
2022/02/16 10:24:51;;;;;;;104.87;54.50;;;;;;;;;;5080845;28;21000;-96
2022/02/16 10:27:18;;;;;;;108.67;56.40;;;;;;;;;;5082469;28;20434;-95
2022/02/16 10:29:46;;;;;;;109.67;56.27;;;;;;;;;;5066386;28;20462;-96
2022/02/16 10:32:26;;;;;;;105.93;56.30;;;;;;;;;;5061907;28;20485;-95
2022/02/16 10:35:01;;;;;;;112.17;54.97;;;;;;;;;;5061822;28;20442;-96
2022/02/16 10:37:31;;;;;;;105.57;54.17;;;;;;;;;;5061253;28;20476;-93
2022/02/16 10:40:01;;;;;;;108.97;54.80;;;;;;;;;;5062224;28;20447;-91
2022/02/16 10:42:30;;;;;;;108.47;54.23;;;;;;;;;;5062410;28;21010;-96
2022/02/16 10:45:17;;;;;;;110.13;55.93;;;;;;;;;;5080206;28;20567;-92
2022/02/16 10:47:51;;;;;;;107.33;55.10;;;;;;;;;;5058915;28;20873;-92
2022/02/16 10:50:19;;;;;;;106.70;55.37;;;;;;;;;;5061788;28;20597;-93
2022/02/16 10:52:49;;;;;;;109.77;56.27;;;;;;;;;;5061737;28;20455;-94
2022/02/16 10:55:16;;;;;;;103.50;55.87;;;;;;;;;;5082013;28;20480;-94
2022/02/16 10:57:42;;;;;;;106.57;56.50;;;;;;;;;;5080375;28;20458;-93
2022/02/16 11:00:09;;;;;;;106.30;54.60;;;;;;;;;;5080316;28;20506;-93
2022/02/16 11:02:36;;;;;;;105.83;54.53;;;;;;;;;;5080640;28;20454;-92
2022/02/16 11:05:03;;;;;;;103.67;55.30;;;;;;;;;;5080496;28;20485;-96
2022/02/16 11:07:33;;;;;;;104.83;55.40;;;;;;;;;;5079876;28;20481;-94
2022/02/16 11:10:02;;;;;;;104.17;54.17;;;;;;;;;;5065363;28;20450;-91
2022/02/16 11:12:29;;;;;;;108.73;55.40;;;;;;;;;;5061130;28;20496;-94
2022/02/16 11:14:56;;;;;;;105.03;55.17;;;;;;;;;;5060951;28;20450;-93
2022/02/16 11:17:23;;;;;;;102.83;55.20;;;;;;;;;;5061208;28;20442;-95
2022/02/16 11:19:49;;;;;;;102.83;52.83;;;;;;;;;;5061336;28;20869;-94
2022/02/16 11:22:18;;;;;;;106.40;56.20;;;;;;;;;;5060805;28;20459;-93
2022/02/16 11:24:49;;;;;;;106.77;55.00;;;;;;;;;;5062151;28;20494;-94
2022/02/16 11:27:27;;;;;;;102.53;53.40;;;;;;;;;;5061644;28;20481;-92
2022/02/16 11:29:55;;;;;;;102.43;55.50;;;;;;;;;;5062253;28;20447;-96
2022/02/16 11:32:25;;;;;;;102.13;54.03;;;;;;;;;;5062315;28;20454;-93
2022/02/16 11:35:09;;;;;;;104.07;54.17;;;;;;;;;;5063285;28;20481;-96
2022/02/16 11:37:39;;;;;;;106.43;52.53;;;;;;;;;;5052169;28;20465;-95
2022/02/16 11:40:08;;;;;;;103.87;54.30;;;;;;;;;;5066128;28;20442;-93
2022/02/16 11:42:51;;;;;;;101.37;53.70;;;;;;;;;;5065121;28;20457;-92
2022/02/16 11:45:18;;;;;;;107.60;55.97;;;;;;;;;;5064033;28;21597;-92
2022/02/16 11:47:54;;;;;;;106.07;54.73;;;;;;;;;;5064790;28;20446;-95
2022/02/16 11:50:34;;;;;;;107.80;55.30;;;;;;;;;;5073415;28;20561;-95
2022/02/16 11:53:01;;;;;;;108.10;55.23;;;;;;;;;;5083687;28;20457;-91
2022/02/16 11:55:31;;;;;;;101.90;54.20;;;;;;;;;;5083311;28;20509;-96
2022/02/16 11:57:59;;;;;;;104.40;54.77;;;;;;;;;;5085870;28;20441;-93
2022/02/16 12:00:33;;;;;;;101.17;53.73;;;;;;;;;;5067941;28;20445;-94
2022/02/16 12:03:13;;;;;;;103.10;53.83;;;;;;;;;;5064958;28;20454;-93
2022/02/16 12:05:45;;;;;;;105.10;53.30;;;;;;;;;;5064457;28;20493;-94
2022/02/16 12:08:12;;;;;;;104.03;54.13;;;;;;;;;;5065526;28;20485;-92
2022/02/16 12:10:42;;;;;;;105.37;53.57;;;;;;;;;;5065931;28;20474;-94
2022/02/16 12:13:08;;;;;;;104.67;54.33;;;;;;;;;;5065752;28;20466;-92
2022/02/16 12:15:35;;;;;;;104.03;55.30;;;;;;;;;;5082681;28;20450;-91
2022/02/16 12:18:02;;;;;;;104.70;53.87;;;;;;;;;;5084515;28;20476;-92
2022/02/16 12:20:28;;;;;;;103.63;54.23;;;;;;;;;;5084455;28;20446;-93
2022/02/16 12:23:00;;;;;;;101.30;53.30;;;;;;;;;;5084839;28;20547;-96
2022/02/16 12:25:27;;;;;;;112.63;56.20;;;;;;;;;;5082607;28;20542;-94
2022/02/16 12:28:00;;;;;;;100.70;52.20;;;;;;;;;;5085783;28;20446;-92
2022/02/16 12:30:32;;;;;;;108.80;56.20;;;;;;;;;;5083525;28;20504;-91
2022/02/16 12:32:59;;;;;;;101.20;53.47;;;;;;;;;;5084031;28;20953;-93
2022/02/16 12:35:25;;;;;;;105.50;54.60;;;;;;;;;;5084041;28;20446;-93
2022/02/16 12:37:53;;;;;;;103.20;53.73;;;;;;;;;;5085604;28;20836;-96
2022/02/16 12:40:22;;;;;;;105.67;54.50;;;;;;;;;;5085009;28;20468;-95
2022/02/16 12:42:49;;;;;;;105.80;55.23;;;;;;;;;;5085268;28;20449;-92
2022/02/16 12:45:20;;;;;;;103.73;55.27;;;;;;;;;;5084515;28;20539;-93
2022/02/16 12:47:48;;;;;;;106.80;55.17;;;;;;;;;;5083708;28;20449;-94
2022/02/16 12:50:15;;;;;;;104.87;56.27;;;;;;;;;;5083028;28;20472;-93
2022/02/16 12:52:42;;;;;;;101.10;54.60;;;;;;;;;;5084303;28;20458;-95
2022/02/16 12:55:09;;;;;;;104.17;55.47;;;;;;;;;;5083682;28;20450;-94
2022/02/16 12:57:37;;;;;;;105.23;55.87;;;;;;;;;;5083780;28;20819;-95
2022/02/16 13:02:51;;;;;;;101.60;54.50;;;;;;;;;;5082990;28;20482;-94
2022/02/16 13:05:18;;;;;;;105.33;56.83;;;;;;;;;;5083391;28;20512;-94
2022/02/16 13:07:44;;;;;;;105.90;53.67;;;;;;;;;;5083067;28;20470;-94
2022/02/16 13:10:11;;;;;;;102.80;55.40;;;;;;;;;;5084347;28;20471;-95
2022/02/16 13:12:40;;;;;;;105.30;56.83;;;;;;;;;;5084447;28;20449;-96
2022/02/16 13:15:07;;;;;;;107.27;56.60;;;;;;;;;;5083599;28;20450;-94
2022/02/16 13:17:34;;;;;;;111.80;60.97;;;;;;;;;;5083420;28;20479;-92
2022/02/16 13:20:12;;;;;;;102.77;54.60;;;;;;;;;;5084093;28;20446;-93
2022/02/16 13:22:48;;;;;;;104.17;55.40;;;;;;;;;;5083002;28;20473;-95
2022/02/16 13:25:23;;;;;;;103.50;55.10;;;;;;;;;;5082945;28;20507;-93
2022/02/16 13:27:50;;;;;;;102.30;55.17;;;;;;;;;;5083106;28;20441;-91
2022/02/16 13:30:17;;;;;;;103.00;54.47;;;;;;;;;;5083820;28;20446;-92
2022/02/16 13:32:44;;;;;;;103.03;53.90;;;;;;;;;;5083519;28;20507;-93
2022/02/16 13:35:16;;;;;;;107.33;55.50;;;;;;;;;;5082590;28;20449;-93
2022/02/16 13:38:00;;;;;;;102.80;53.60;;;;;;;;;;5080878;28;20583;-92
2022/02/16 13:40:27;;;;;;;103.77;55.20;;;;;;;;;;5082202;28;20512;-91
2022/02/16 13:42:57;;;;;;;105.50;56.23;;;;;;;;;;5082765;28;20454;-93
2022/02/16 13:45:31;;;;;;;102.47;55.13;;;;;;;;;;5082689;28;20481;-92
2022/02/16 13:47:57;;;;;;;102.03;53.60;;;;;;;;;;5082700;28;20476;-93
2022/02/16 13:50:29;;;;;;;104.37;55.03;;;;;;;;;;5082097;28;20499;-96
2022/02/16 13:52:56;;;;;;;103.83;54.60;;;;;;;;;;5083495;28;20449;-93
2022/02/16 13:55:22;;;;;;;103.80;54.60;;;;;;;;;;5083392;28;20453;-95
2022/02/16 13:57:50;;;;;;;101.57;54.53;;;;;;;;;;5082175;28;20453;-93
2022/02/16 14:00:19;;;;;;;101.50;53.73;;;;;;;;;;5083189;28;20453;-94
2022/02/16 14:03:02;;;;;;;102.90;54.00;;;;;;;;;;5082555;28;20445;-96
2022/02/16 14:05:30;;;;;;;102.43;54.23;;;;;;;;;;5081261;28;20489;-94
2022/02/16 14:07:56;;;;;;;102.13;54.17;;;;;;;;;;5082709;28;20449;-96
2022/02/16 14:10:23;;;;;;;103.47;54.87;;;;;;;;;;5082710;28;21020;-94